Terminal Aerodrome Forecast
Issued by NWS Shreveport, LA

Home | Current Version | Previous Version | Text Only | Print | Product List | Glossary On
Versions: 1 2 3 4 5 6 7 8 9 10 11 12 13 14 15 16 17 18
703
FTUS44 KSHV 180324 AAA
TAFTYR
TAF AMD
KTYR 180324Z 1803/1824 VRB03KT 1/4SM FG OVC002
      TEMPO 1804/1806 2SM BR OVC004
     FM181600 VRB03KT 1 1/2SM BR OVC003
     FM181800 10005KT P6SM OVC006=

USA.gov is the U.S. government's official web portal to all federal, state and local government web resources and services.